createdAt,value
2022-12-29T00:02:54.069Z,6.23
2022-12-29T00:07:56.025Z,4.40
2022-12-29T00:12:58.008Z,4.83
2022-12-29T00:17:59.887Z,4.30
2022-12-29T00:23:01.740Z,3.33
2022-12-29T00:28:07.427Z,4.10
2022-12-29T00:33:10.552Z,4.15
2022-12-29T00:38:12.419Z,4.43
2022-12-29T00:43:14.353Z,3.47
2022-12-29T00:48:16.222Z,5.17
2022-12-29T00:53:18.629Z,3.35
2022-12-29T00:58:20.504Z,3.93
2022-12-29T01:03:22.571Z,5.07
2022-12-29T01:08:24.541Z,3.95
2022-12-29T01:13:26.373Z,4.83
2022-12-29T01:18:28.309Z,5.73
2022-12-29T01:23:30.392Z,5.27
2022-12-29T01:28:32.261Z,4.40
2022-12-29T01:33:34.527Z,7.40
2022-12-29T01:38:36.937Z,4.47
2022-12-29T01:43:59.758Z,4.28
2022-12-29T01:49:16.129Z,6.27
2022-12-29T01:54:26.038Z,6.07
2022-12-29T01:59:30.720Z,6.47
2022-12-29T02:04:33.097Z,7.22
2022-12-29T02:09:35.894Z,6.88
2022-12-29T02:14:37.753Z,3.77
2022-12-29T02:19:58.314Z,4.63
2022-12-29T02:25:05.839Z,4.40
2022-12-29T02:30:19.661Z,5.75
2022-12-29T02:35:33.359Z,4.60
2022-12-29T02:40:49.703Z,6.38
2022-12-29T02:46:28.279Z,5.25
2022-12-29T02:51:44.863Z,4.97
2022-12-29T02:56:46.841Z,5.45
2022-12-29T03:02:10.102Z,5.03
2022-12-29T03:07:44.214Z,3.65
2022-12-29T03:18:13.227Z,6.43
2022-12-29T03:23:15.319Z,6.03
2022-12-29T03:28:23.103Z,6.40
2022-12-29T03:33:26.508Z,4.25
2022-12-29T03:38:47.968Z,8.85
2022-12-29T03:43:49.961Z,4.90
2022-12-29T03:48:51.809Z,10.27
2022-12-29T03:53:54.032Z,18.27
2022-12-29T03:58:55.905Z,6.28
2022-12-29T04:03:57.895Z,4.13
2022-12-29T04:08:59.735Z,4.13
2022-12-29T04:14:01.580Z,3.30
2022-12-29T04:19:03.909Z,8.03
2022-12-29T04:24:06.939Z,8.57
2022-12-29T04:29:09.418Z,7.65
2022-12-29T04:34:11.243Z,7.47
2022-12-29T04:39:13.046Z,7.20
2022-12-29T04:44:14.866Z,5.57
2022-12-29T04:49:16.636Z,4.93
2022-12-29T04:54:20.165Z,5.28
2022-12-29T04:59:21.995Z,5.87
2022-12-29T05:04:23.851Z,7.93
2022-12-29T05:09:25.679Z,6.67
2022-12-29T05:14:27.604Z,4.73
2022-12-29T05:19:29.425Z,7.17
2022-12-29T05:24:31.285Z,5.40
2022-12-29T05:29:33.141Z,8.13
2022-12-29T05:34:34.972Z,8.23
2022-12-29T05:39:36.819Z,7.97
2022-12-29T05:44:38.808Z,8.03
2022-12-29T05:49:40.712Z,7.88
2022-12-29T05:54:42.537Z,6.23
2022-12-29T05:59:44.384Z,8.70
2022-12-29T06:04:46.198Z,7.10
2022-12-29T06:09:48.066Z,4.67
2022-12-29T06:14:49.854Z,4.07
2022-12-29T06:19:51.723Z,10.20
2022-12-29T06:24:53.556Z,8.53
2022-12-29T06:29:55.368Z,10.43
2022-12-29T06:34:57.187Z,8.90
2022-12-29T06:39:59.287Z,5.87
2022-12-29T06:45:01.134Z,5.68
2022-12-29T06:50:03.361Z,7.73
2022-12-29T06:55:05.627Z,9.68
2022-12-29T07:00:08.221Z,11.18
2022-12-29T07:10:11.789Z,10.70
2022-12-29T07:15:13.645Z,9.67
2022-12-29T07:20:15.819Z,8.25
2022-12-29T07:25:17.733Z,9.50
2022-12-29T07:30:19.559Z,10.70
2022-12-29T07:35:21.363Z,12.10
2022-12-29T07:40:23.184Z,8.73
2022-12-29T07:45:25.068Z,7.50
2022-12-29T07:50:26.908Z,7.37
2022-12-29T07:55:28.718Z,9.23
2022-12-29T08:00:30.553Z,8.73
2022-12-29T08:05:33.168Z,9.40
2022-12-29T08:15:38.142Z,8.75
2022-12-29T08:20:40.025Z,5.97
2022-12-29T08:25:41.820Z,13.17
2022-12-29T08:30:43.593Z,6.30
2022-12-29T08:35:45.593Z,16.83
2022-12-29T08:40:47.322Z,6.07
2022-12-29T08:45:49.198Z,10.13
2022-12-29T08:50:51.076Z,9.47
2022-12-29T08:56:05.227Z,7.27
2022-12-29T09:01:07.694Z,9.40
2022-12-29T09:06:09.638Z,9.77
2022-12-29T09:11:12.504Z,9.50
2022-12-29T09:16:14.695Z,10.50
2022-12-29T09:21:16.585Z,12.83
2022-12-29T09:26:18.440Z,6.53
2022-12-29T09:31:20.265Z,8.27
2022-12-29T09:36:22.116Z,7.63
2022-12-29T09:41:51.159Z,12.03
2022-12-29T09:46:53.850Z,10.10
2022-12-29T09:51:58.420Z,12.40
2022-12-29T09:57:00.229Z,7.85
2022-12-29T10:02:33.910Z,9.53
2022-12-29T10:07:56.781Z,7.97
2022-12-29T10:13:12.018Z,12.57
2022-12-29T10:18:23.816Z,11.07
2022-12-29T10:23:40.303Z,12.93
2022-12-29T10:29:05.853Z,11.77
2022-12-29T10:34:16.326Z,12.90
2022-12-29T10:39:23.607Z,13.77
2022-12-29T10:44:25.419Z,15.45
2022-12-29T10:49:27.860Z,10.47
2022-12-29T10:54:51.415Z,9.45
2022-12-29T11:05:03.923Z,12.48
2022-12-29T11:10:17.629Z,13.23
2022-12-29T11:15:19.681Z,11.13
2022-12-29T11:20:38.163Z,9.13
2022-12-29T11:25:39.976Z,13.55
2022-12-29T11:30:41.965Z,13.27
2022-12-29T11:35:44.041Z,8.18
2022-12-29T11:40:45.827Z,12.25
2022-12-29T11:45:47.627Z,13.13
2022-12-29T11:50:57.994Z,11.43
2022-12-29T11:56:01.811Z,11.10
2022-12-29T12:01:15.752Z,11.38
2022-12-29T12:06:18.369Z,10.70
2022-12-29T12:16:23.930Z,13.43
2022-12-29T12:21:33.214Z,10.63
2022-12-29T12:26:48.976Z,11.57
2022-12-29T12:31:51.781Z,12.88
2022-12-29T12:37:12.310Z,9.60
2022-12-29T12:42:24.828Z,11.77
2022-12-29T12:47:44.839Z,15.20
2022-12-29T12:53:01.701Z,10.90
2022-12-29T12:58:13.008Z,11.60
2022-12-29T13:03:46.405Z,9.75
2022-12-29T13:09:15.819Z,9.85
2022-12-29T13:14:26.760Z,13.77
2022-12-29T13:19:32.193Z,11.25
2022-12-29T13:24:42.963Z,13.25
2022-12-29T13:30:05.977Z,20.88
2022-12-29T13:35:30.824Z,25.45
2022-12-29T13:40:35.498Z,17.48
2022-12-29T13:45:37.338Z,16.73
2022-12-29T13:50:39.724Z,9.97
2022-12-29T13:55:54.638Z,15.30
2022-12-29T14:01:09.740Z,15.05
2022-12-29T14:06:11.773Z,15.82
2022-12-29T14:11:15.495Z,19.20
2022-12-29T14:16:33.120Z,21.83
2022-12-29T14:21:35.018Z,17.70
2022-12-29T14:26:38.449Z,21.47
2022-12-29T14:31:40.385Z,22.50
2022-12-29T14:36:42.820Z,15.23
2022-12-29T14:41:44.843Z,23.40
2022-12-29T14:46:57.084Z,24.55
2022-12-29T14:52:17.232Z,29.73
2022-12-29T14:57:33.500Z,22.92
2022-12-29T15:02:38.442Z,21.83
2022-12-29T15:07:40.359Z,25.10
2022-12-29T15:12:44.613Z,26.37
2022-12-29T15:17:46.488Z,26.80
2022-12-29T15:22:59.449Z,35.03
2022-12-29T15:28:03.114Z,25.80
2022-12-29T15:33:30.649Z,31.45
2022-12-29T15:38:41.051Z,29.40
2022-12-29T15:44:21.221Z,26.85
2022-12-29T15:49:26.180Z,31.27
2022-12-29T15:54:35.155Z,31.75
2022-12-29T15:59:36.911Z,29.10
2022-12-29T16:04:54.027Z,21.47
2022-12-29T16:10:01.698Z,30.58
2022-12-29T16:15:12.964Z,33.80
2022-12-29T16:20:40.524Z,35.38
2022-12-29T16:25:42.454Z,30.67
2022-12-29T16:30:44.375Z,30.60
2022-12-29T16:35:47.334Z,31.87
2022-12-29T16:40:52.375Z,33.10
2022-12-29T16:45:54.174Z,38.15
2022-12-29T16:51:16.441Z,30.77
2022-12-29T16:56:20.829Z,30.42
2022-12-29T17:01:22.771Z,32.83
2022-12-29T17:06:24.917Z,34.05
2022-12-29T17:11:34.436Z,30.67
2022-12-29T17:16:36.266Z,29.80
2022-12-29T17:21:38.288Z,23.60
2022-12-29T17:26:41.240Z,43.40
2022-12-29T17:31:43.137Z,43.90
2022-12-29T17:36:45.151Z,38.33
2022-12-29T17:41:47.194Z,44.40
2022-12-29T17:46:49.536Z,48.70
2022-12-29T17:51:51.474Z,41.65
2022-12-29T17:56:53.353Z,47.23
2022-12-29T18:01:55.324Z,35.40
2022-12-29T18:06:57.328Z,44.10
2022-12-29T18:11:59.280Z,54.60
2022-12-29T18:17:01.150Z,53.53
2022-12-29T18:22:03.008Z,50.90
2022-12-29T18:27:14.908Z,47.47
2022-12-29T18:32:16.954Z,55.13
2022-12-29T18:37:18.804Z,63.03
2022-12-29T18:42:20.741Z,45.23
2022-12-29T18:47:22.755Z,45.73
2022-12-29T18:52:24.627Z,62.43
2022-12-29T18:57:26.548Z,58.83
2022-12-29T19:02:28.396Z,58.73
2022-12-29T19:07:30.229Z,54.07
2022-12-29T19:12:32.255Z,52.57
2022-12-29T19:17:34.529Z,48.22
2022-12-29T19:22:36.379Z,62.70
2022-12-29T19:27:38.216Z,60.57
2022-12-29T19:32:40.198Z,65.27
2022-12-29T19:37:42.017Z,54.43
2022-12-29T19:42:43.889Z,57.67
2022-12-29T19:47:45.658Z,41.30
2022-12-29T19:52:47.472Z,57.83
2022-12-29T19:57:49.329Z,59.53
2022-12-29T20:02:51.432Z,57.37
2022-12-29T20:07:53.572Z,64.18
2022-12-29T20:12:55.464Z,45.73
2022-12-29T20:18:14.434Z,70.73
2022-12-29T20:23:16.826Z,65.32
2022-12-29T20:28:21.560Z,42.10
2022-12-29T20:33:23.489Z,50.53
2022-12-29T20:38:25.383Z,59.67
2022-12-29T20:43:27.243Z,57.43
2022-12-29T20:48:29.774Z,75.80
2022-12-29T20:58:47.139Z,73.25
2022-12-29T21:04:18.327Z,78.63
2022-12-29T21:09:20.940Z,52.88
2022-12-29T21:14:22.789Z,64.05
2022-12-29T21:19:24.619Z,62.57
2022-12-29T21:24:26.605Z,61.90
2022-12-29T21:29:28.492Z,71.50
2022-12-29T21:34:30.601Z,76.43
2022-12-29T21:39:32.500Z,65.38
2022-12-29T21:44:34.428Z,70.07
2022-12-29T21:49:36.305Z,48.83
2022-12-29T21:54:38.249Z,71.73
2022-12-29T21:59:40.111Z,64.23
2022-12-29T22:04:42.221Z,61.87
2022-12-29T22:09:44.238Z,65.05
2022-12-29T22:14:46.092Z,66.60
2022-12-29T22:19:47.989Z,71.30
2022-12-29T22:24:49.854Z,56.63
2022-12-29T22:29:51.714Z,62.60
2022-12-29T22:34:53.637Z,58.90
2022-12-29T22:39:55.536Z,43.97
2022-12-29T22:44:57.469Z,49.80
2022-12-29T22:49:59.317Z,50.60
2022-12-29T22:55:06.466Z,56.13
2022-12-29T23:00:09.332Z,62.20
2022-12-29T23:05:11.182Z,58.30
2022-12-29T23:10:13.073Z,55.33
2022-12-29T23:15:14.989Z,38.30
2022-12-29T23:20:16.933Z,48.97
2022-12-29T23:25:18.838Z,50.70
2022-12-29T23:30:20.790Z,51.93
2022-12-29T23:35:22.703Z,49.50
2022-12-29T23:40:24.608Z,54.20
2022-12-29T23:45:26.505Z,35.30
2022-12-29T23:50:28.399Z,45.77
2022-12-29T23:55:30.254Z,49.77
